SAS42F ENZV-ENVA
Flight info
| Callsign | SAS42F |
|---|---|
| Flight time | 1h 0m |
| Altitude | 35000 |
| Route | ODINU DCT NELSU |
| Aircraft | A320/M-SDE3FGHIRWY/LB1 |
Departure
| Time | 2026-05-07 18:31 |
|---|---|
| Airport | Stavanger Airport, Sola (ENZV) |
Arrival
| Time | 2026-05-07 19:31 |
|---|---|
| Airport | Trondheim Airport, Værnes (ENVA) |
| Time | Latitude | Longitude | Altitude | Speed | Heading |
|---|---|---|---|---|---|
| 2026-05-07 18:01 | 58.88354 | 5.63006 | 26 ft | 0 kts | 222° |
| 2026-05-07 18:22 | 58.88355 | 5.63007 | 25 ft | 1 kts | 222° |
| 2026-05-07 18:22 | 58.88378 | 5.63052 | 28 ft | 4 kts | 224° |
| 2026-05-07 18:22 | 58.88397 | 5.63087 | 26 ft | 4 kts | 218° |
| 2026-05-07 18:23 | 58.88420 | 5.63114 | 31 ft | 4 kts | 191° |
| 2026-05-07 18:23 | 58.88437 | 5.63111 | 32 ft | 1 kts | 135° |
| 2026-05-07 18:23 | 58.88437 | 5.63110 | 32 ft | 0 kts | 135° |
| 2026-05-07 18:26 | 58.88437 | 5.63111 | 26 ft | 0 kts | 135° |
| 2026-05-07 18:26 | 58.88430 | 5.63124 | 29 ft | 3 kts | 135° |
| 2026-05-07 18:26 | 58.88420 | 5.63144 | 26 ft | 4 kts | 135° |
| 2026-05-07 18:26 | 58.88373 | 5.63217 | 29 ft | 13 kts | 151° |
| 2026-05-07 18:27 | 58.88293 | 5.63288 | 30 ft | 13 kts | 142° |
| 2026-05-07 18:27 | 58.88249 | 5.63423 | 30 ft | 14 kts | 156° |
| 2026-05-07 18:27 | 58.88145 | 5.63440 | 30 ft | 16 kts | 178° |
| 2026-05-07 18:27 | 58.88024 | 5.63432 | 30 ft | 19 kts | 194° |
| 2026-05-07 18:28 | 58.87857 | 5.63297 | 31 ft | 21 kts | 195° |
| 2026-05-07 18:28 | 58.87704 | 5.63290 | 31 ft | 23 kts | 179° |
| 2026-05-07 18:28 | 58.87590 | 5.63293 | 31 ft | 25 kts | 179° |
| 2026-05-07 18:28 | 58.87409 | 5.63298 | 31 ft | 27 kts | 178° |
| 2026-05-07 18:29 | 58.87215 | 5.63304 | 31 ft | 29 kts | 180° |
| 2026-05-07 18:29 | 58.87036 | 5.63322 | 33 ft | 17 kts | 157° |
| 2026-05-07 18:29 | 58.86953 | 5.63498 | 33 ft | 19 kts | 101° |
| 2026-05-07 18:29 | 58.86949 | 5.63744 | 37 ft | 15 kts | 88° |
| 2026-05-07 18:30 | 58.86985 | 5.63803 | 36 ft | 9 kts | 359° |
| 2026-05-07 18:30 | 58.87097 | 5.63800 | 35 ft | 34 kts | 359° |
| 2026-05-07 18:30 | 58.87573 | 5.63779 | 34 ft | 99 kts | 359° |
| 2026-05-07 18:30 | 58.88422 | 5.63754 | 34 ft | 147 kts | 359° |
| 2026-05-07 18:31 | 58.89457 | 5.63729 | 536 ft | 144 kts | 357° |
| 2026-05-07 18:31 | 58.90473 | 5.63681 | 1045 ft | 148 kts | 359° |
| 2026-05-07 18:31 | 58.91452 | 5.63652 | 1582 ft | 141 kts | 359° |
| 2026-05-07 18:31 | 58.92513 | 5.63622 | 1797 ft | 162 kts | 359° |
| 2026-05-07 18:32 | 58.93713 | 5.63589 | 1944 ft | 190 kts | 359° |
| 2026-05-07 18:32 | 58.95122 | 5.63550 | 2181 ft | 214 kts | 359° |
| 2026-05-07 18:32 | 58.96704 | 5.63508 | 2526 ft | 239 kts | 360° |
| 2026-05-07 18:32 | 58.98450 | 5.63460 | 3010 ft | 260 kts | 0° |
| 2026-05-07 18:33 | 59.00262 | 5.63955 | 3757 ft | 268 kts | 23° |
| 2026-05-07 18:33 | 59.01869 | 5.65797 | 4622 ft | 270 kts | 39° |
| 2026-05-07 18:33 | 59.03405 | 5.67937 | 5498 ft | 274 kts | 39° |
| 2026-05-07 18:33 | 59.04965 | 5.70128 | 6339 ft | 280 kts | 38° |
| 2026-05-07 18:34 | 59.06557 | 5.72369 | 7131 ft | 285 kts | 37° |
| 2026-05-07 18:34 | 59.08177 | 5.74643 | 7929 ft | 290 kts | 37° |
| 2026-05-07 18:34 | 59.09827 | 5.76959 | 8707 ft | 295 kts | 36° |
| 2026-05-07 18:34 | 59.11503 | 5.79316 | 9482 ft | 300 kts | 36° |
| 2026-05-07 18:35 | 59.13209 | 5.81721 | 10217 ft | 305 kts | 36° |
| 2026-05-07 18:35 | 59.14981 | 5.84222 | 10557 ft | 325 kts | 35° |
| 2026-05-07 18:35 | 59.16870 | 5.86886 | 10839 ft | 344 kts | 35° |
| 2026-05-07 18:35 | 59.18826 | 5.89646 | 11457 ft | 350 kts | 35° |
| 2026-05-07 18:36 | 59.20812 | 5.92445 | 12135 ft | 353 kts | 34° |
| 2026-05-07 18:36 | 59.22811 | 5.95272 | 12847 ft | 357 kts | 34° |
| 2026-05-07 18:36 | 59.24826 | 5.98132 | 13569 ft | 360 kts | 34° |
| 2026-05-07 18:36 | 59.26857 | 6.01023 | 14235 ft | 363 kts | 34° |
| 2026-05-07 18:37 | 59.28906 | 6.03946 | 14840 ft | 366 kts | 34° |
| 2026-05-07 18:37 | 59.30975 | 6.06901 | 15428 ft | 370 kts | 34° |
| 2026-05-07 18:37 | 59.33062 | 6.09885 | 16003 ft | 374 kts | 34° |
| 2026-05-07 18:37 | 59.35172 | 6.12909 | 16594 ft | 378 kts | 33° |
| 2026-05-07 18:38 | 59.37301 | 6.15958 | 17171 ft | 381 kts | 33° |
| 2026-05-07 18:38 | 59.39452 | 6.19042 | 17729 ft | 385 kts | 33° |
| 2026-05-07 18:38 | 59.41626 | 6.22163 | 18330 ft | 389 kts | 33° |
| 2026-05-07 18:38 | 59.43819 | 6.25322 | 18876 ft | 393 kts | 33° |
| 2026-05-07 18:39 | 59.46033 | 6.28521 | 19443 ft | 396 kts | 33° |
| 2026-05-07 18:39 | 59.48262 | 6.31747 | 19994 ft | 399 kts | 33° |
| 2026-05-07 18:39 | 59.50508 | 6.35005 | 20553 ft | 403 kts | 32° |
| 2026-05-07 18:39 | 59.52772 | 6.38286 | 21069 ft | 405 kts | 32° |
| 2026-05-07 18:40 | 59.55054 | 6.41595 | 21581 ft | 409 kts | 32° |
| 2026-05-07 18:40 | 59.57349 | 6.44934 | 22092 ft | 412 kts | 32° |
| 2026-05-07 18:40 | 59.59660 | 6.48303 | 22592 ft | 415 kts | 32° |
| 2026-05-07 18:40 | 59.61992 | 6.51704 | 23136 ft | 418 kts | 32° |
| 2026-05-07 18:41 | 59.64334 | 6.55129 | 23672 ft | 420 kts | 32° |
| 2026-05-07 18:41 | 59.66698 | 6.58578 | 24103 ft | 422 kts | 30° |
| 2026-05-07 18:41 | 59.69205 | 6.61538 | 24520 ft | 419 kts | 20° |
| 2026-05-07 18:41 | 59.71885 | 6.63762 | 24937 ft | 418 kts | 16° |
| 2026-05-07 18:42 | 59.74602 | 6.65877 | 25348 ft | 422 kts | 15° |
| 2026-05-07 18:42 | 59.77342 | 6.68013 | 25734 ft | 424 kts | 15° |
| 2026-05-07 18:42 | 59.80101 | 6.70178 | 26132 ft | 427 kts | 15° |
| 2026-05-07 18:42 | 59.82868 | 6.72365 | 26493 ft | 430 kts | 15° |
| 2026-05-07 18:43 | 59.85660 | 6.74580 | 26865 ft | 432 kts | 15° |
| 2026-05-07 18:43 | 59.88459 | 6.76804 | 27220 ft | 435 kts | 15° |
| 2026-05-07 18:43 | 59.91280 | 6.79050 | 27588 ft | 438 kts | 15° |
| 2026-05-07 18:43 | 59.94117 | 6.81311 | 27939 ft | 440 kts | 15° |
| 2026-05-07 18:44 | 59.96966 | 6.83578 | 28296 ft | 443 kts | 15° |
| 2026-05-07 18:44 | 59.99834 | 6.85863 | 28690 ft | 445 kts | 14° |
| 2026-05-07 18:44 | 60.02720 | 6.88170 | 29048 ft | 448 kts | 14° |
| 2026-05-07 18:44 | 60.05620 | 6.90491 | 29385 ft | 450 kts | 14° |
| 2026-05-07 18:45 | 60.08495 | 6.92802 | 29757 ft | 453 kts | 14° |
| 2026-05-07 18:45 | 60.11461 | 6.95192 | 30099 ft | 455 kts | 14° |
| 2026-05-07 18:45 | 60.14371 | 6.97539 | 30391 ft | 458 kts | 14° |
| 2026-05-07 18:45 | 60.17333 | 6.99925 | 30682 ft | 460 kts | 14° |
| 2026-05-07 18:46 | 60.20334 | 7.02354 | 31088 ft | 459 kts | 15° |
| 2026-05-07 18:46 | 60.23297 | 7.04771 | 31472 ft | 459 kts | 15° |
| 2026-05-07 18:46 | 60.26254 | 7.07190 | 31860 ft | 459 kts | 15° |
| 2026-05-07 18:46 | 60.29168 | 7.09574 | 32278 ft | 459 kts | 14° |
| 2026-05-07 18:47 | 60.32164 | 7.12023 | 32674 ft | 458 kts | 14° |
| 2026-05-07 18:47 | 60.35103 | 7.14425 | 33042 ft | 458 kts | 14° |
| 2026-05-07 18:47 | 60.38076 | 7.16856 | 33424 ft | 458 kts | 14° |
| 2026-05-07 18:47 | 60.40993 | 7.19246 | 33834 ft | 458 kts | 14° |
| 2026-05-07 18:48 | 60.43986 | 7.21707 | 34205 ft | 458 kts | 14° |
| 2026-05-07 18:48 | 60.46899 | 7.24105 | 34507 ft | 458 kts | 14° |
| 2026-05-07 18:48 | 60.49848 | 7.26536 | 34818 ft | 458 kts | 15° |
| 2026-05-07 18:48 | 60.52805 | 7.28975 | 35057 ft | 459 kts | 15° |
| 2026-05-07 18:49 | 60.55762 | 7.31418 | 35139 ft | 459 kts | 15° |
| 2026-05-07 18:49 | 60.61686 | 7.36329 | 35134 ft | 460 kts | 14° |
| 2026-05-07 18:50 | 60.67604 | 7.41277 | 35136 ft | 460 kts | 15° |
| 2026-05-07 18:50 | 60.73522 | 7.46248 | 35135 ft | 460 kts | 15° |
| 2026-05-07 18:51 | 60.79437 | 7.51223 | 35129 ft | 460 kts | 15° |
| 2026-05-07 18:51 | 60.85361 | 7.56213 | 35140 ft | 460 kts | 14° |
| 2026-05-07 18:52 | 60.91266 | 7.61223 | 35130 ft | 459 kts | 14° |
| 2026-05-07 18:52 | 60.97160 | 7.66241 | 35132 ft | 458 kts | 14° |
| 2026-05-07 18:53 | 61.03049 | 7.71274 | 35127 ft | 459 kts | 14° |
| 2026-05-07 18:53 | 61.08948 | 7.76341 | 35128 ft | 459 kts | 14° |
| 2026-05-07 18:54 | 61.14837 | 7.81414 | 35145 ft | 457 kts | 14° |
| 2026-05-07 18:54 | 61.20700 | 7.86490 | 35136 ft | 456 kts | 14° |
| 2026-05-07 18:55 | 61.26559 | 7.91572 | 35141 ft | 457 kts | 14° |
| 2026-05-07 18:55 | 61.32422 | 7.96675 | 35145 ft | 457 kts | 14° |
| 2026-05-07 18:56 | 61.38291 | 8.01822 | 35157 ft | 458 kts | 14° |
| 2026-05-07 18:56 | 61.44154 | 8.06997 | 35156 ft | 457 kts | 14° |
| 2026-05-07 18:57 | 61.49979 | 8.12144 | 35165 ft | 457 kts | 14° |
| 2026-05-07 18:57 | 61.55842 | 8.17332 | 35164 ft | 457 kts | 14° |
| 2026-05-07 18:58 | 61.61702 | 8.22540 | 35171 ft | 458 kts | 14° |
| 2026-05-07 18:58 | 61.67570 | 8.27780 | 35219 ft | 458 kts | 14° |
| 2026-05-07 18:59 | 61.73422 | 8.33038 | 35193 ft | 456 kts | 14° |
| 2026-05-07 18:59 | 61.79258 | 8.38304 | 35185 ft | 456 kts | 14° |
| 2026-05-07 19:00 | 61.85085 | 8.43578 | 35183 ft | 456 kts | 14° |
| 2026-05-07 19:00 | 61.90917 | 8.48874 | 35183 ft | 456 kts | 14° |
| 2026-05-07 19:01 | 61.96741 | 8.54198 | 35228 ft | 456 kts | 15° |
| 2026-05-07 19:01 | 62.02545 | 8.59520 | 35177 ft | 454 kts | 15° |
| 2026-05-07 19:02 | 62.08344 | 8.64855 | 35172 ft | 454 kts | 15° |
| 2026-05-07 19:02 | 62.14139 | 8.70197 | 35173 ft | 454 kts | 15° |
| 2026-05-07 19:03 | 62.19941 | 8.75589 | 35175 ft | 454 kts | 15° |
| 2026-05-07 19:03 | 62.25729 | 8.80993 | 35231 ft | 455 kts | 16° |
| 2026-05-07 19:04 | 62.31514 | 8.86402 | 35164 ft | 453 kts | 16° |
| 2026-05-07 19:04 | 62.37293 | 8.91835 | 35160 ft | 454 kts | 16° |
| 2026-05-07 19:05 | 62.43084 | 8.97293 | 35163 ft | 454 kts | 16° |
| 2026-05-07 19:05 | 62.48869 | 9.02765 | 35165 ft | 454 kts | 16° |
| 2026-05-07 19:06 | 62.54663 | 9.08273 | 35194 ft | 455 kts | 17° |
| 2026-05-07 19:06 | 62.63368 | 9.16627 | 35181 ft | 457 kts | 17° |
| 2026-05-07 19:07 | 62.69185 | 9.22237 | 34646 ft | 461 kts | 16° |
| 2026-05-07 19:07 | 62.72135 | 9.25079 | 33861 ft | 464 kts | 16° |
| 2026-05-07 19:07 | 62.75086 | 9.27926 | 33281 ft | 461 kts | 16° |
| 2026-05-07 19:08 | 62.78004 | 9.30756 | 32759 ft | 457 kts | 16° |
| 2026-05-07 19:08 | 62.80894 | 9.33572 | 32211 ft | 454 kts | 15° |
| 2026-05-07 19:08 | 62.83754 | 9.36364 | 31769 ft | 449 kts | 15° |
| 2026-05-07 19:08 | 62.86598 | 9.39141 | 31338 ft | 444 kts | 15° |
| 2026-05-07 19:09 | 62.89414 | 9.41899 | 30789 ft | 441 kts | 15° |
| 2026-05-07 19:09 | 62.92190 | 9.44624 | 30378 ft | 435 kts | 15° |
| 2026-05-07 19:09 | 62.94946 | 9.47335 | 29886 ft | 431 kts | 15° |
| 2026-05-07 19:09 | 62.97673 | 9.50022 | 29293 ft | 428 kts | 15° |
| 2026-05-07 19:10 | 63.00369 | 9.52681 | 28875 ft | 421 kts | 15° |
| 2026-05-07 19:10 | 63.03025 | 9.55304 | 28440 ft | 417 kts | 15° |
| 2026-05-07 19:10 | 63.05644 | 9.57978 | 28019 ft | 416 kts | 20° |
| 2026-05-07 19:10 | 63.08036 | 9.61669 | 27595 ft | 426 kts | 35° |
| 2026-05-07 19:11 | 63.10007 | 9.66648 | 27158 ft | 436 kts | 51° |
| 2026-05-07 19:11 | 63.11394 | 9.72639 | 26714 ft | 445 kts | 67° |
| 2026-05-07 19:11 | 63.12101 | 9.79323 | 26230 ft | 448 kts | 78° |
| 2026-05-07 19:11 | 63.12583 | 9.86124 | 25754 ft | 447 kts | 78° |
| 2026-05-07 19:12 | 63.13065 | 9.92913 | 25271 ft | 447 kts | 78° |
| 2026-05-07 19:12 | 63.13383 | 9.97386 | 25077 ft | 443 kts | 78° |
| 2026-05-07 19:12 | 63.14012 | 10.06303 | 24523 ft | 440 kts | 78° |
| 2026-05-07 19:12 | 63.14478 | 10.12949 | 24172 ft | 437 kts | 78° |
| 2026-05-07 19:13 | 63.14942 | 10.19561 | 23801 ft | 434 kts | 79° |
| 2026-05-07 19:13 | 63.15402 | 10.26136 | 23410 ft | 430 kts | 79° |
| 2026-05-07 19:13 | 63.15852 | 10.32648 | 22996 ft | 427 kts | 79° |
| 2026-05-07 19:13 | 63.16295 | 10.39111 | 22549 ft | 421 kts | 79° |
| 2026-05-07 19:14 | 63.16582 | 10.43325 | 21997 ft | 416 kts | 79° |
| 2026-05-07 19:14 | 63.17008 | 10.49610 | 21272 ft | 409 kts | 79° |
| 2026-05-07 19:14 | 63.17416 | 10.55759 | 20627 ft | 399 kts | 80° |
| 2026-05-07 19:14 | 63.17806 | 10.61673 | 20398 ft | 378 kts | 80° |
| 2026-05-07 19:15 | 63.18182 | 10.67364 | 20009 ft | 372 kts | 79° |
| 2026-05-07 19:15 | 63.18557 | 10.73016 | 19605 ft | 370 kts | 79° |
| 2026-05-07 19:15 | 63.18931 | 10.78641 | 19207 ft | 369 kts | 80° |
| 2026-05-07 19:15 | 63.19302 | 10.84254 | 18803 ft | 367 kts | 80° |
| 2026-05-07 19:16 | 63.19666 | 10.89843 | 18394 ft | 366 kts | 80° |
| 2026-05-07 19:16 | 63.20023 | 10.95403 | 17962 ft | 363 kts | 81° |
| 2026-05-07 19:16 | 63.20372 | 11.00923 | 17571 ft | 360 kts | 81° |
| 2026-05-07 19:16 | 63.20716 | 11.06387 | 17174 ft | 357 kts | 81° |
| 2026-05-07 19:17 | 63.21056 | 11.11821 | 16781 ft | 354 kts | 81° |
| 2026-05-07 19:17 | 63.21393 | 11.17206 | 16393 ft | 352 kts | 81° |
| 2026-05-07 19:17 | 63.21724 | 11.22556 | 16006 ft | 349 kts | 81° |
| 2026-05-07 19:17 | 63.22052 | 11.27878 | 15653 ft | 346 kts | 81° |
| 2026-05-07 19:18 | 63.22372 | 11.33098 | 15520 ft | 336 kts | 81° |
| 2026-05-07 19:18 | 63.22679 | 11.38167 | 15387 ft | 327 kts | 83° |
| 2026-05-07 19:18 | 63.22685 | 11.43140 | 15251 ft | 319 kts | 98° |
| 2026-05-07 19:18 | 63.22353 | 11.47926 | 15118 ft | 310 kts | 99° |
| 2026-05-07 19:19 | 63.22024 | 11.52594 | 14941 ft | 303 kts | 98° |
| 2026-05-07 19:19 | 63.21963 | 11.57206 | 14482 ft | 298 kts | 82° |
| 2026-05-07 19:19 | 63.22394 | 11.61592 | 14003 ft | 293 kts | 71° |
| 2026-05-07 19:19 | 63.22974 | 11.65977 | 13430 ft | 291 kts | 72° |
| 2026-05-07 19:20 | 63.23578 | 11.70158 | 12913 ft | 286 kts | 64° |
| 2026-05-07 19:20 | 63.24558 | 11.73925 | 12434 ft | 279 kts | 49° |
| 2026-05-07 19:20 | 63.25820 | 11.77176 | 12066 ft | 278 kts | 46° |
| 2026-05-07 19:20 | 63.27085 | 11.80395 | 11763 ft | 277 kts | 47° |
| 2026-05-07 19:21 | 63.28443 | 11.83399 | 11474 ft | 272 kts | 34° |
| 2026-05-07 19:21 | 63.30066 | 11.85552 | 11071 ft | 272 kts | 19° |
| 2026-05-07 19:21 | 63.31856 | 11.86499 | 10849 ft | 261 kts | 357° |
| 2026-05-07 19:21 | 63.33610 | 11.85850 | 10565 ft | 253 kts | 333° |
| 2026-05-07 19:22 | 63.35029 | 11.83722 | 10211 ft | 243 kts | 309° |
| 2026-05-07 19:22 | 63.35900 | 11.80548 | 9770 ft | 240 kts | 285° |
| 2026-05-07 19:22 | 63.36269 | 11.76937 | 9437 ft | 239 kts | 279° |
| 2026-05-07 19:22 | 63.36595 | 11.73303 | 9121 ft | 239 kts | 279° |
| 2026-05-07 19:23 | 63.36921 | 11.69689 | 8814 ft | 236 kts | 279° |
| 2026-05-07 19:23 | 63.37245 | 11.66116 | 8289 ft | 235 kts | 279° |
| 2026-05-07 19:23 | 63.37568 | 11.62557 | 7765 ft | 234 kts | 280° |
| 2026-05-07 19:23 | 63.37896 | 11.59025 | 7295 ft | 231 kts | 283° |
| 2026-05-07 19:24 | 63.38571 | 11.55824 | 6831 ft | 227 kts | 306° |
| 2026-05-07 19:24 | 63.39678 | 11.53492 | 6695 ft | 214 kts | 324° |
| 2026-05-07 19:24 | 63.40984 | 11.52167 | 6560 ft | 199 kts | 337° |
| 2026-05-07 19:24 | 63.42268 | 11.51185 | 6158 ft | 196 kts | 337° |
| 2026-05-07 19:25 | 63.43555 | 11.50136 | 5670 ft | 195 kts | 330° |
| 2026-05-07 19:25 | 63.44630 | 11.48361 | 5395 ft | 190 kts | 309° |
| 2026-05-07 19:25 | 63.45304 | 11.45935 | 5289 ft | 182 kts | 290° |
| 2026-05-07 19:25 | 63.45552 | 11.43203 | 5090 ft | 180 kts | 271° |
| 2026-05-07 19:26 | 63.45567 | 11.40416 | 4835 ft | 179 kts | 271° |
| 2026-05-07 19:26 | 63.45583 | 11.37632 | 4549 ft | 179 kts | 271° |
| 2026-05-07 19:26 | 63.45598 | 11.34849 | 4265 ft | 179 kts | 271° |
| 2026-05-07 19:26 | 63.45613 | 11.32073 | 3982 ft | 178 kts | 271° |
| 2026-05-07 19:27 | 63.45626 | 11.29307 | 3701 ft | 178 kts | 271° |
| 2026-05-07 19:27 | 63.45640 | 11.26545 | 3422 ft | 177 kts | 271° |
| 2026-05-07 19:27 | 63.45652 | 11.23830 | 3150 ft | 171 kts | 271° |
| 2026-05-07 19:27 | 63.45663 | 11.21205 | 2888 ft | 167 kts | 271° |
| 2026-05-07 19:28 | 63.45674 | 11.18637 | 2625 ft | 164 kts | 270° |
| 2026-05-07 19:28 | 63.45685 | 11.16101 | 2365 ft | 162 kts | 270° |
| 2026-05-07 19:28 | 63.45694 | 11.13665 | 2130 ft | 152 kts | 270° |
| 2026-05-07 19:28 | 63.45703 | 11.11342 | 1883 ft | 148 kts | 269° |
| 2026-05-07 19:29 | 63.45711 | 11.09064 | 1641 ft | 146 kts | 269° |
| 2026-05-07 19:29 | 63.45718 | 11.06806 | 1400 ft | 145 kts | 269° |
| 2026-05-07 19:29 | 63.45726 | 11.04593 | 1171 ft | 144 kts | 269° |
| 2026-05-07 19:29 | 63.45733 | 11.02364 | 938 ft | 143 kts | 270° |
| 2026-05-07 19:30 | 63.45742 | 11.00149 | 707 ft | 142 kts | 270° |
| 2026-05-07 19:30 | 63.45754 | 10.97947 | 496 ft | 140 kts | 270° |
| 2026-05-07 19:30 | 63.45754 | 10.95763 | 284 ft | 141 kts | 269° |
| 2026-05-07 19:30 | 63.45753 | 10.93584 | 71 ft | 136 kts | 271° |
| 2026-05-07 19:31 | 63.45757 | 10.91705 | 38 ft | 101 kts | 270° |
| 2026-05-07 19:31 | 63.45762 | 10.90516 | 33 ft | 52 kts | 270° |
| 2026-05-07 19:31 | 63.45762 | 10.90004 | 31 ft | 24 kts | 271° |
| 2026-05-07 19:31 | 63.45765 | 10.89685 | 30 ft | 18 kts | 271° |
| 2026-05-07 19:32 | 63.45765 | 10.89377 | 29 ft | 20 kts | 262° |
| 2026-05-07 19:32 | 63.45689 | 10.89342 | 29 ft | 16 kts | 131° |
| 2026-05-07 19:32 | 63.45613 | 10.89546 | 29 ft | 18 kts | 125° |
| 2026-05-07 19:32 | 63.45599 | 10.89841 | 30 ft | 20 kts | 89° |
| 2026-05-07 19:33 | 63.45600 | 10.90174 | 32 ft | 22 kts | 90° |
| 2026-05-07 19:33 | 63.45598 | 10.90536 | 34 ft | 24 kts | 90° |
| 2026-05-07 19:33 | 63.45598 | 10.90928 | 35 ft | 26 kts | 89° |
| 2026-05-07 19:33 | 63.45598 | 10.91324 | 38 ft | 20 kts | 93° |
| 2026-05-07 19:34 | 63.45597 | 10.91398 | 38 ft | 1 kts | 91° |
| 2026-05-07 19:34 | 63.45596 | 10.91537 | 39 ft | 13 kts | 89° |
| 2026-05-07 19:34 | 63.45598 | 10.91756 | 39 ft | 15 kts | 89° |
| 2026-05-07 19:34 | 63.45568 | 10.91841 | 39 ft | 8 kts | 189° |
| 2026-05-07 19:35 | 63.45518 | 10.91825 | 39 ft | 6 kts | 179° |
| 2026-05-07 19:35 | 63.45507 | 10.91825 | 39 ft | 2 kts | 179° |
| 2026-05-07 19:35 | 63.45497 | 10.91825 | 39 ft | 1 kts | 180° |
| 2026-05-07 19:35 | 63.45496 | 10.91825 | 39 ft | 0 kts | 180° |